createdAt,value
2022-09-24T00:01:35.168Z,23.30
2022-09-24T00:04:07.848Z,26.35
2022-09-24T00:06:41.322Z,23.92
2022-09-24T00:09:09.017Z,24.27
2022-09-24T00:11:35.878Z,23.38
2022-09-24T00:14:02.904Z,23.95
2022-09-24T00:16:32.901Z,20.80
2022-09-24T00:19:01.287Z,21.58
2022-09-24T00:21:36.435Z,21.73
2022-09-24T00:24:09.788Z,22.50
2022-09-24T00:26:51.565Z,20.00
2022-09-24T00:29:24.125Z,20.02
2022-09-24T00:31:52.148Z,20.08
2022-09-24T00:34:19.227Z,19.83
2022-09-24T00:36:46.782Z,19.23
2022-09-24T00:39:14.485Z,20.50
2022-09-24T00:41:47.048Z,17.55
2022-09-24T00:44:47.734Z,18.23
2022-09-24T00:47:34.367Z,21.75
2022-09-24T00:50:15.469Z,19.23
2022-09-24T00:52:48.383Z,23.15
2022-09-24T00:55:16.477Z,21.83
2022-09-24T00:57:44.686Z,23.13
2022-09-24T01:00:12.007Z,20.92
2022-09-24T01:02:41.045Z,23.65
2022-09-24T01:05:10.141Z,23.80
2022-09-24T01:07:36.972Z,24.17
2022-09-24T01:10:04.430Z,23.25
2022-09-24T01:13:18.508Z,22.38
2022-09-24T01:16:02.203Z,27.52
2022-09-24T01:18:35.682Z,28.40
2022-09-24T01:21:30.198Z,24.33
2022-09-24T01:24:26.018Z,26.40
2022-09-24T01:26:57.910Z,27.25
2022-09-24T01:29:28.706Z,27.95
2022-09-24T01:32:06.253Z,28.80
2022-09-24T01:34:43.467Z,27.17
2022-09-24T01:37:14.039Z,30.98
2022-09-24T01:39:43.023Z,29.77
2022-09-24T01:42:12.118Z,32.28
2022-09-24T01:44:42.063Z,33.63
2022-09-24T01:47:39.599Z,31.55
2022-09-24T01:50:12.136Z,34.35
2022-09-24T01:53:11.400Z,33.88
2022-09-24T01:55:45.240Z,31.98
2022-09-24T01:58:25.483Z,30.20
2022-09-24T02:01:07.945Z,32.03
2022-09-24T02:03:43.498Z,32.50
2022-09-24T02:06:16.032Z,31.50
2022-09-24T02:08:47.016Z,32.97
2022-09-24T02:11:23.203Z,35.92
2022-09-24T02:14:06.701Z,34.20
2022-09-24T02:16:41.489Z,34.58
2022-09-24T02:19:13.740Z,34.95
2022-09-24T02:21:43.053Z,32.25
2022-09-24T02:24:50.016Z,37.13
2022-09-24T02:27:18.119Z,35.05
2022-09-24T02:29:45.142Z,35.08
2022-09-24T02:32:18.001Z,33.70
2022-09-24T02:34:51.716Z,33.50
2022-09-24T02:37:20.246Z,34.60
2022-09-24T02:39:46.963Z,33.45
2022-09-24T02:42:15.585Z,32.28
2022-09-24T02:44:42.210Z,32.40
2022-09-24T02:47:08.878Z,30.83
2022-09-24T02:49:35.580Z,32.35
2022-09-24T02:52:02.754Z,33.65
2022-09-24T02:54:29.436Z,32.72
2022-09-24T02:56:56.048Z,30.98
2022-09-24T02:59:22.954Z,32.85
2022-09-24T03:01:50.289Z,32.90
2022-09-24T03:04:17.144Z,29.10
2022-09-24T03:06:44.090Z,30.30
2022-09-24T03:09:13.669Z,29.42
2022-09-24T03:11:41.058Z,31.77
2022-09-24T03:14:07.835Z,32.63
2022-09-24T03:16:34.643Z,28.20
2022-09-24T03:19:01.362Z,27.55
2022-09-24T03:21:28.130Z,30.40
2022-09-24T03:23:54.901Z,30.95
2022-09-24T03:26:21.554Z,29.75
2022-09-24T03:28:48.254Z,29.33
2022-09-24T03:31:15.201Z,30.95
2022-09-24T03:33:44.548Z,27.35
2022-09-24T03:36:17.316Z,29.90
2022-09-24T03:38:45.668Z,29.67
2022-09-24T03:41:13.520Z,30.25
2022-09-24T03:43:40.986Z,30.90
2022-09-24T03:46:08.701Z,31.23
2022-09-24T03:48:37.041Z,28.13
2022-09-24T03:51:20.774Z,26.95
2022-09-24T03:53:48.170Z,28.02
2022-09-24T03:56:15.922Z,27.75
2022-09-24T03:58:47.969Z,29.10
2022-09-24T04:01:15.875Z,28.63
2022-09-24T04:03:42.483Z,27.85
2022-09-24T04:06:09.158Z,28.63
2022-09-24T04:08:35.862Z,28.02
2022-09-24T04:11:02.761Z,26.00
2022-09-24T04:13:29.556Z,26.90
2022-09-24T04:15:56.279Z,26.17
2022-09-24T04:18:22.983Z,25.80
2022-09-24T04:20:49.629Z,26.13
2022-09-24T04:23:16.362Z,25.08
2022-09-24T04:25:43.010Z,27.42
2022-09-24T04:28:10.669Z,26.15
2022-09-24T04:30:38.181Z,25.88
2022-09-24T04:33:05.276Z,25.88
2022-09-24T04:35:35.852Z,27.45
2022-09-24T04:38:04.278Z,24.73
2022-09-24T04:40:31.430Z,25.88
2022-09-24T04:42:58.090Z,22.83
2022-09-24T04:45:25.010Z,26.88
2022-09-24T04:47:56.265Z,24.65
2022-09-24T04:50:24.331Z,25.95
2022-09-24T04:52:51.010Z,25.00
2022-09-24T04:55:19.351Z,24.27
2022-09-24T04:57:46.425Z,26.42
2022-09-24T05:00:17.307Z,25.83
2022-09-24T05:02:44.651Z,25.48
2022-09-24T05:05:13.244Z,24.88
2022-09-24T05:07:41.492Z,25.35
2022-09-24T05:10:08.608Z,23.08
2022-09-24T05:12:36.296Z,25.27
2022-09-24T05:15:04.136Z,23.73
2022-09-24T05:17:30.857Z,23.73
2022-09-24T05:19:59.463Z,24.70
2022-09-24T05:22:31.304Z,25.75
2022-09-24T05:24:57.920Z,23.23
2022-09-24T05:27:24.592Z,24.17
2022-09-24T05:29:51.265Z,25.20
2022-09-24T05:32:19.986Z,23.55
2022-09-24T05:34:47.242Z,23.40
2022-09-24T05:37:15.014Z,26.08
2022-09-24T05:39:42.092Z,23.00
2022-09-24T05:42:15.084Z,22.92
2022-09-24T05:44:44.251Z,24.60
2022-09-24T05:47:13.179Z,25.55
2022-09-24T05:49:39.796Z,23.65
2022-09-24T05:52:06.857Z,23.25
2022-09-24T05:54:33.556Z,23.25
2022-09-24T05:57:00.237Z,23.35
2022-09-24T05:59:26.965Z,23.15
2022-09-24T06:01:54.342Z,21.35
2022-09-24T06:04:21.135Z,23.08
2022-09-24T06:06:47.826Z,21.70
2022-09-24T06:09:14.720Z,21.98
2022-09-24T06:11:42.073Z,24.13
2022-09-24T06:14:09.747Z,24.15
2022-09-24T06:16:36.704Z,26.95
2022-09-24T06:19:03.590Z,25.40
2022-09-24T06:21:30.269Z,24.60
2022-09-24T06:23:56.938Z,23.63
2022-09-24T06:26:26.078Z,22.20
2022-09-24T06:28:52.786Z,22.15
2022-09-24T06:31:19.459Z,29.95
2022-09-24T06:33:46.422Z,22.77
2022-09-24T06:36:13.071Z,23.38
2022-09-24T06:38:40.620Z,25.35
2022-09-24T06:41:07.645Z,24.65
2022-09-24T06:43:34.632Z,24.55
2022-09-24T06:46:02.007Z,26.73
2022-09-24T06:48:29.558Z,26.77
2022-09-24T06:50:56.523Z,25.02
2022-09-24T06:53:23.671Z,25.77
2022-09-24T06:55:50.366Z,24.77
2022-09-24T06:58:22.203Z,25.50
2022-09-24T07:00:58.856Z,25.90
2022-09-24T07:03:27.085Z,25.98
2022-09-24T07:05:54.274Z,27.48
2022-09-24T07:08:21.216Z,25.42
2022-09-24T07:10:49.210Z,26.65
2022-09-24T07:13:16.718Z,27.65
2022-09-24T07:15:44.349Z,27.08
2022-09-24T07:18:11.824Z,26.48
2022-09-24T07:20:38.753Z,26.63
2022-09-24T07:23:06.985Z,26.92
2022-09-24T07:25:34.225Z,28.05
2022-09-24T07:28:03.179Z,25.90
2022-09-24T07:30:30.232Z,29.50
2022-09-24T07:32:57.702Z,26.50
2022-09-24T07:35:24.768Z,26.58
2022-09-24T07:38:06.286Z,24.05
2022-09-24T07:40:33.572Z,25.05
2022-09-24T07:43:00.714Z,25.02
2022-09-24T07:45:29.469Z,24.70
2022-09-24T07:48:04.299Z,26.40
2022-09-24T07:50:33.889Z,26.75
2022-09-24T07:53:00.782Z,26.90
2022-09-24T07:55:27.555Z,24.67
2022-09-24T07:57:55.925Z,25.52
2022-09-24T08:00:24.364Z,23.98
2022-09-24T08:02:53.768Z,23.73
2022-09-24T08:05:20.651Z,23.93
2022-09-24T08:07:55.236Z,27.95
2022-09-24T08:10:22.921Z,23.08
2022-09-24T08:12:50.294Z,23.88
2022-09-24T08:15:19.732Z,24.02
2022-09-24T08:17:46.380Z,22.23
2022-09-24T08:20:13.109Z,22.85
2022-09-24T08:22:39.737Z,24.70
2022-09-24T08:25:06.654Z,23.50
2022-09-24T08:27:34.351Z,24.17
2022-09-24T08:30:00.995Z,24.33
2022-09-24T08:32:29.413Z,27.23
2022-09-24T08:34:56.081Z,25.13
2022-09-24T08:37:22.976Z,22.92
2022-09-24T08:39:49.695Z,22.45
2022-09-24T08:42:49.381Z,24.13
2022-09-24T08:45:35.512Z,22.58
2022-09-24T08:48:19.254Z,21.60
2022-09-24T08:51:01.189Z,23.05
2022-09-24T08:53:51.214Z,21.40
2022-09-24T08:56:24.916Z,21.98
2022-09-24T08:59:04.765Z,21.15
2022-09-24T09:01:43.087Z,24.70
2022-09-24T09:04:40.108Z,22.35
2022-09-24T09:07:19.793Z,22.20
2022-09-24T09:09:58.013Z,23.67
2022-09-24T09:12:52.996Z,22.10
2022-09-24T09:15:24.427Z,25.33
2022-09-24T09:18:09.390Z,23.60
2022-09-24T09:20:44.623Z,22.52
2022-09-24T09:23:28.473Z,22.95
2022-09-24T09:25:57.365Z,22.63
2022-09-24T09:28:26.457Z,21.05
2022-09-24T09:31:19.190Z,22.85
2022-09-24T09:34:11.071Z,24.60
2022-09-24T09:37:05.391Z,25.05
2022-09-24T09:40:05.696Z,22.10
2022-09-24T09:42:36.243Z,23.25
2022-09-24T09:45:41.827Z,23.23
2022-09-24T09:48:14.106Z,21.75
2022-09-24T09:50:48.480Z,19.70
2022-09-24T09:53:32.101Z,22.98
2022-09-24T09:56:01.455Z,20.65
2022-09-24T09:58:40.652Z,20.05
2022-09-24T10:01:13.121Z,20.65
2022-09-24T10:03:46.365Z,22.65
2022-09-24T10:06:22.489Z,19.05
2022-09-24T10:08:49.212Z,16.88
2022-09-24T10:11:17.598Z,16.40
2022-09-24T10:13:45.405Z,15.75
2022-09-24T10:16:15.780Z,15.82
2022-09-24T10:18:48.338Z,16.10
2022-09-24T10:21:36.792Z,16.27
2022-09-24T10:24:11.751Z,15.95
2022-09-24T10:26:45.564Z,13.65
2022-09-24T10:29:33.635Z,13.50
2022-09-24T10:32:00.628Z,13.35
2022-09-24T10:34:28.906Z,12.77
2022-09-24T10:37:12.684Z,14.95
2022-09-24T10:39:39.437Z,14.13
2022-09-24T10:42:07.829Z,14.10
2022-09-24T10:44:36.857Z,15.25
2022-09-24T10:47:24.576Z,14.70
2022-09-24T10:50:01.010Z,18.08
2022-09-24T10:52:51.188Z,15.02
2022-09-24T10:55:17.802Z,16.48
2022-09-24T10:58:08.886Z,15.48
2022-09-24T11:00:40.368Z,16.13
2022-09-24T11:03:34.791Z,17.13
2022-09-24T11:06:13.361Z,15.70
2022-09-24T11:08:55.002Z,15.18
2022-09-24T11:11:27.478Z,15.48
2022-09-24T11:14:15.966Z,15.25
2022-09-24T11:16:57.877Z,14.30
2022-09-24T11:19:35.252Z,14.15
2022-09-24T11:22:13.950Z,14.52
2022-09-24T11:25:29.198Z,16.80
2022-09-24T11:28:12.850Z,15.63
2022-09-24T11:31:10.517Z,15.13
2022-09-24T11:34:39.217Z,13.52
2022-09-24T11:37:11.428Z,14.07
2022-09-24T11:40:12.254Z,15.77
2022-09-24T11:43:06.773Z,13.68
2022-09-24T11:45:47.579Z,14.57
2022-09-24T11:48:29.067Z,16.65
2022-09-24T11:51:10.210Z,11.70
2022-09-24T11:53:54.018Z,16.02
2022-09-24T11:56:35.269Z,12.48
2022-09-24T11:59:22.758Z,15.05
2022-09-24T12:02:14.479Z,11.98
2022-09-24T12:04:56.043Z,11.10
2022-09-24T12:07:47.590Z,9.38
2022-09-24T12:10:38.541Z,7.38
2022-09-24T12:13:27.533Z,8.88
2022-09-24T12:16:22.907Z,10.52
2022-09-24T12:19:16.875Z,8.45
2022-09-24T12:21:46.349Z,11.88
2022-09-24T12:24:29.466Z,9.23
2022-09-24T12:26:59.148Z,11.65
2022-09-24T12:29:58.044Z,10.00
2022-09-24T12:32:54.902Z,9.55
2022-09-24T12:36:10.996Z,10.02
2022-09-24T12:39:10.011Z,9.27
2022-09-24T12:41:40.404Z,8.55
2022-09-24T12:46:57.678Z,7.00
2022-09-24T12:49:26.946Z,7.53
2022-09-24T12:51:56.472Z,9.52
2022-09-24T12:54:29.162Z,8.50
2022-09-24T12:57:24.910Z,10.57
2022-09-24T12:59:57.532Z,8.80
2022-09-24T13:02:25.780Z,8.18
2022-09-24T13:05:16.494Z,11.25
2022-09-24T13:07:54.404Z,10.07
2022-09-24T13:10:30.361Z,5.72
2022-09-24T13:12:59.946Z,8.20
2022-09-24T13:15:34.514Z,6.22
2022-09-24T13:18:21.503Z,8.07
2022-09-24T13:21:00.392Z,3.38
2022-09-24T13:23:29.285Z,4.20
2022-09-24T13:25:57.705Z,3.33
2022-09-24T13:28:38.462Z,4.38
2022-09-24T13:31:31.397Z,6.90
2022-09-24T13:34:14.116Z,5.97
2022-09-24T13:37:00.735Z,6.00
2022-09-24T13:39:48.618Z,5.57
2022-09-24T13:42:31.194Z,5.95
2022-09-24T13:45:03.345Z,7.30
2022-09-24T13:47:43.230Z,8.57
2022-09-24T13:50:23.364Z,7.88
2022-09-24T13:53:04.609Z,7.00
2022-09-24T13:55:36.530Z,10.70
2022-09-24T13:58:03.305Z,4.22
2022-09-24T14:00:32.272Z,10.05
2022-09-24T14:03:18.833Z,9.82
2022-09-24T14:05:45.624Z,9.07
2022-09-24T14:08:15.150Z,7.40
2022-09-24T14:10:43.453Z,8.90
2022-09-24T14:13:17.467Z,9.68
2022-09-24T14:16:07.330Z,9.07
2022-09-24T14:18:34.378Z,5.85
2022-09-24T14:21:21.435Z,6.57
2022-09-24T14:24:01.762Z,6.35
2022-09-24T14:28:56.009Z,5.80
2022-09-24T14:31:23.020Z,6.72
2022-09-24T14:33:50.041Z,8.35
2022-09-24T14:36:17.118Z,11.15
2022-09-24T14:38:59.144Z,6.20
2022-09-24T14:41:30.188Z,5.57
2022-09-24T14:44:06.086Z,7.30
2022-09-24T14:46:49.036Z,6.68
2022-09-24T14:49:20.236Z,7.05
2022-09-24T14:51:58.349Z,7.18
2022-09-24T14:54:31.011Z,8.80
2022-09-24T14:57:29.176Z,7.03
2022-09-24T14:59:55.813Z,7.85
2022-09-24T15:02:30.764Z,8.82
2022-09-24T15:05:06.573Z,9.23
2022-09-24T15:07:34.934Z,10.82
2022-09-24T15:10:04.610Z,6.43
2022-09-24T15:12:36.746Z,11.73
2022-09-24T15:15:26.835Z,8.82
2022-09-24T15:17:53.587Z,7.88
2022-09-24T15:20:20.218Z,8.48
2022-09-24T15:22:47.574Z,9.30
2022-09-24T15:25:15.544Z,7.93
2022-09-24T15:27:42.673Z,8.75
2022-09-24T15:30:19.815Z,13.52
2022-09-24T15:32:47.531Z,10.40
2022-09-24T15:35:15.070Z,9.15
2022-09-24T15:37:42.235Z,10.35
2022-09-24T15:40:15.953Z,7.68
2022-09-24T15:42:42.641Z,7.63
2022-09-24T15:45:24.059Z,7.53
2022-09-24T15:47:52.034Z,9.65
2022-09-24T15:50:23.860Z,8.70
2022-09-24T15:53:01.732Z,9.43
2022-09-24T15:55:29.157Z,10.32
2022-09-24T15:57:55.844Z,9.52
2022-09-24T16:00:24.303Z,8.68
2022-09-24T16:02:54.305Z,8.23
2022-09-24T16:05:21.583Z,9.88
2022-09-24T16:07:49.170Z,11.75
2022-09-24T16:10:16.461Z,9.02
2022-09-24T16:12:43.420Z,8.75
2022-09-24T16:15:16.748Z,8.02
2022-09-24T16:17:43.584Z,12.65
2022-09-24T16:20:10.454Z,11.25
2022-09-24T16:22:37.161Z,11.75
2022-09-24T16:25:04.450Z,10.52
2022-09-24T16:27:31.446Z,10.57
2022-09-24T16:29:58.157Z,12.80
2022-09-24T16:32:25.098Z,15.45
2022-09-24T16:34:51.898Z,9.25
2022-09-24T16:37:18.743Z,10.70
2022-09-24T16:39:45.975Z,11.02
2022-09-24T16:42:12.722Z,11.32
2022-09-24T16:44:39.474Z,11.63
2022-09-24T16:47:06.190Z,14.38
2022-09-24T16:49:32.887Z,15.00
2022-09-24T16:51:59.750Z,11.57
2022-09-24T16:54:29.573Z,11.85
2022-09-24T16:56:57.528Z,9.02
2022-09-24T16:59:24.235Z,23.15
2022-09-24T17:01:51.017Z,22.65
2022-09-24T17:04:17.948Z,15.23
2022-09-24T17:06:45.802Z,13.27
2022-09-24T17:09:31.655Z,11.98
2022-09-24T17:11:58.384Z,12.38
2022-09-24T17:14:25.390Z,14.05
2022-09-24T17:16:52.133Z,10.93
2022-09-24T17:19:18.785Z,14.20
2022-09-24T17:21:46.819Z,11.77
2022-09-24T17:24:16.444Z,14.98
2022-09-24T17:26:46.063Z,17.23
2022-09-24T17:29:12.886Z,9.18
2022-09-24T17:31:40.099Z,11.18
2022-09-24T17:34:12.419Z,12.63
2022-09-24T17:36:39.080Z,10.43
2022-09-24T17:39:06.412Z,9.30
2022-09-24T17:41:34.203Z,8.77
2022-09-24T17:44:01.425Z,11.82
2022-09-24T17:46:30.510Z,9.23
2022-09-24T17:48:59.601Z,9.13
2022-09-24T17:51:32.560Z,10.38
2022-09-24T17:54:01.955Z,12.30
2022-09-24T17:56:31.983Z,15.25
2022-09-24T17:58:59.386Z,16.00
2022-09-24T18:01:29.091Z,9.45
2022-09-24T18:03:58.119Z,8.68
2022-09-24T18:06:31.979Z,10.50
2022-09-24T18:09:01.195Z,17.50
2022-09-24T18:11:33.593Z,18.27
2022-09-24T18:14:02.442Z,12.73
2022-09-24T18:16:31.612Z,8.13
2022-09-24T18:18:59.966Z,8.48
2022-09-24T18:21:27.890Z,12.75
2022-09-24T18:23:56.248Z,9.27
2022-09-24T18:26:28.108Z,9.65
2022-09-24T18:28:59.787Z,9.48
2022-09-24T18:31:28.285Z,7.05
2022-09-24T18:34:06.751Z,10.05
2022-09-24T18:36:36.006Z,10.20
2022-09-24T18:39:04.302Z,9.65
2022-09-24T18:41:31.391Z,15.70
2022-09-24T18:43:59.438Z,8.95
2022-09-24T18:46:28.818Z,13.13
2022-09-24T18:48:56.638Z,12.37
2022-09-24T18:51:29.463Z,13.80
2022-09-24T18:54:02.869Z,9.80
2022-09-24T18:56:30.105Z,8.35
2022-09-24T18:58:58.551Z,8.18
2022-09-24T19:01:27.077Z,7.93
2022-09-24T19:03:55.363Z,10.75
2022-09-24T19:06:22.174Z,11.25
2022-09-24T19:08:49.116Z,9.15
2022-09-24T19:11:16.216Z,11.55
2022-09-24T19:13:47.339Z,5.07
2022-09-24T19:16:14.732Z,10.18
2022-09-24T19:18:42.077Z,6.28
2022-09-24T19:21:10.822Z,5.13
2022-09-24T19:23:39.166Z,9.63
2022-09-24T19:26:07.059Z,7.82
2022-09-24T19:28:34.882Z,8.02
2022-09-24T19:31:01.959Z,4.68
2022-09-24T19:33:28.769Z,10.27
2022-09-24T19:36:02.046Z,6.30
2022-09-24T19:38:31.223Z,6.10
2022-09-24T19:41:06.875Z,8.50
2022-09-24T19:43:34.854Z,7.93
2022-09-24T19:46:05.305Z,9.30
2022-09-24T19:48:36.356Z,8.55
2022-09-24T19:51:05.867Z,9.00
2022-09-24T19:53:32.885Z,8.87
2022-09-24T19:55:59.686Z,8.25
2022-09-24T19:58:27.406Z,6.13
2022-09-24T20:00:54.599Z,10.57
2022-09-24T20:03:21.257Z,7.78
2022-09-24T20:05:47.853Z,7.68
2022-09-24T20:08:14.759Z,12.27
2022-09-24T20:10:42.399Z,6.60
2022-09-24T20:13:10.664Z,9.00
2022-09-24T20:15:41.535Z,6.75
2022-09-24T20:18:11.737Z,8.40
2022-09-24T20:20:39.815Z,7.53
2022-09-24T20:23:10.813Z,8.50
2022-09-24T20:26:00.776Z,9.40
2022-09-24T20:28:32.802Z,6.07
2022-09-24T20:30:59.537Z,8.27
2022-09-24T20:33:26.731Z,11.85
2022-09-24T20:36:02.262Z,9.05
2022-09-24T20:38:29.512Z,9.95
2022-09-24T20:40:57.177Z,7.22
2022-09-24T20:43:24.705Z,6.55
2022-09-24T20:45:52.693Z,7.05
2022-09-24T20:48:19.384Z,8.48
2022-09-24T20:50:46.143Z,6.45
2022-09-24T20:53:12.762Z,8.10
2022-09-24T20:55:40.020Z,9.75
2022-09-24T20:58:07.070Z,8.00
2022-09-24T21:00:35.923Z,9.20
2022-09-24T21:03:19.958Z,10.50
2022-09-24T21:05:50.935Z,8.90
2022-09-24T21:08:18.349Z,7.72
2022-09-24T21:10:45.512Z,5.78
2022-09-24T21:13:12.965Z,6.60
2022-09-24T21:15:39.723Z,8.75
2022-09-24T21:18:22.242Z,6.15
2022-09-24T21:20:49.633Z,8.32
2022-09-24T21:23:16.301Z,8.77
2022-09-24T21:25:54.320Z,9.05
2022-09-24T21:28:21.615Z,14.25
2022-09-24T21:30:57.856Z,9.90
2022-09-24T21:33:24.585Z,12.00
2022-09-24T21:35:51.184Z,8.55
2022-09-24T21:38:19.721Z,9.52
2022-09-24T21:40:54.996Z,13.18
2022-09-24T21:43:23.578Z,6.93
2022-09-24T21:46:00.090Z,10.85
2022-09-24T21:48:27.184Z,7.85
2022-09-24T21:50:56.102Z,8.95
2022-09-24T21:53:22.760Z,6.70
2022-09-24T21:55:49.378Z,7.35
2022-09-24T21:58:16.016Z,9.55
2022-09-24T22:00:42.963Z,9.45
2022-09-24T22:03:10.572Z,7.72
2022-09-24T22:05:42.863Z,6.75
2022-09-24T22:08:11.863Z,7.18
2022-09-24T22:10:43.320Z,7.55
2022-09-24T22:13:14.980Z,9.25
2022-09-24T22:15:44.495Z,6.90
2022-09-24T22:18:12.009Z,6.70
2022-09-24T22:20:43.327Z,6.95
2022-09-24T22:23:11.388Z,9.00
2022-09-24T22:25:38.386Z,9.25
2022-09-24T22:28:05.528Z,6.85
2022-09-24T22:30:32.355Z,5.32
2022-09-24T22:32:59.053Z,5.95
2022-09-24T22:35:44.109Z,6.05
2022-09-24T22:38:10.817Z,6.25
2022-09-24T22:40:37.582Z,7.05
2022-09-24T22:43:04.249Z,7.80
2022-09-24T22:45:30.877Z,4.60
2022-09-24T22:47:59.134Z,8.57
2022-09-24T22:50:26.287Z,7.95
2022-09-24T22:52:53.179Z,30.33
2022-09-24T22:55:19.861Z,20.88
2022-09-24T22:57:46.482Z,11.85
2022-09-24T23:00:15.138Z,11.10
2022-09-24T23:02:41.986Z,6.25
2022-09-24T23:05:09.855Z,7.68
2022-09-24T23:07:36.533Z,5.70
2022-09-24T23:10:03.949Z,5.68
2022-09-24T23:12:34.395Z,5.15
2022-09-24T23:17:28.164Z,7.00
2022-09-24T23:19:54.867Z,7.43
2022-09-24T23:22:22.699Z,5.38
2022-09-24T23:24:52.333Z,5.05
2022-09-24T23:27:20.248Z,5.70
2022-09-24T23:29:47.308Z,5.00
2022-09-24T23:32:14.832Z,7.53
2022-09-24T23:34:42.834Z,4.43
2022-09-24T23:37:13.051Z,6.03
2022-09-24T23:39:39.827Z,5.80
2022-09-24T23:42:06.986Z,8.32
2022-09-24T23:44:34.093Z,5.07
2022-09-24T23:47:01.432Z,6.88
2022-09-24T23:49:28.378Z,4.03
2022-09-24T23:51:55.446Z,4.65
2022-09-24T23:54:22.275Z,3.90
2022-09-24T23:56:48.878Z,5.68
2022-09-24T23:59:15.522Z,5.03
